Shenzhen Bao'an International Airport
ZGSZ : now visible

Aeroporto :











RITROVATECI SU...

 
LOGIN :

Iscrizione | Disclaimer

   EN    FR    IT 

 









Sommario :    VFR   VFR Marginale   IFR   IFR Intensivo   IFR Molto Intensivo
Visibilità : 
Base nubi : 
>= 8 km
>= 3000ft
5 / 8 km
1000 / 3000 ft
1500m / 5 km
500 / 1000 ft
800 / 1500m
200 / 500 ft
< 800m
< 200 ft
Simboli :   Temporali  Nebbia  Neve Forte  Precipitazioni Forti  Vento > 20 kt







- Altitudine del aeroporto : 13 ft
- Codice IATA : SZX


ZGSZ - Shenzhen Bao'an International

ULTIMO METAR :
  • 230300Z 03004MPS 9999 BKN020 20/18 Q1019 NOSIG

METARs OBSOLETI :
  • 230200Z 04004MPS 010V080 9999 -SHRA BKN013 FEW020CB BKN022 20/19 Q1018 BECMG AT0350 SCT015 OVC030

TAF TAF ZGSZ
Valido dal 23 a 00 ore il 24 a 00 ore UTC


221906Z 2300/2324 03004MPS 6000 BKN040 TX23/2306Z TN19/2322Z
FIR ZGZU / Asia



MetMap, La meteo Aeronautica in un colpo d'occhio ! - Copyright ORBIFLY Dicembre 2007 - Disclaimer

ORBIFLY MET'MAP TEAM :

Programmazione e sviluppo : Alexandra Zaïnal
Concezione e sviluppo : Baudouin d'Aumeries
Co-Programmazione e sviluppo : Marc-Olivier Méhu
Supporto tecnico e logistico : Manuel Goepfert
Aiuto per la traduzione : Arnaldo La Scala

Contatto : metmap@orbifly.com




FONTI E CREDITI :

   NOAA       Earth
Advisory